Time;durP1;ratioP1;P1;durP2;ratioP2;P2;SDS_P1;SDS_P2;PMS_P1;PMS_P2;Temp;Humidity;BMP_temperature;BMP_pressure;BME280_temperature;BME280_humidity;BME280_pressure;Samples;Min_cycle;Max_cycle;Signal;HPM_P1;HPM_P2
2022/08/23 00:01:24;;;;;;;;;;;18.50;99.90;;;;;;5075401;28;20045;-75
2022/08/23 00:03:54;;;;;;;3.80;1.50;;;18.50;99.90;;;;;;5074597;28;19927;-75
2022/08/23 00:06:23;;;;;;;4.18;1.45;;;18.50;99.90;;;;;;5074614;28;20052;-74
2022/08/23 00:08:52;;;;;;;4.07;1.90;;;18.50;99.90;;;;;;5073930;28;20475;-76
2022/08/23 00:11:26;;;;;;;3.75;1.52;;;18.50;99.90;;;;;;5074640;28;20045;-74
2022/08/23 00:13:54;;;;;;;3.15;1.77;;;18.50;99.90;;;;;;5074664;28;20064;-74
2022/08/23 00:16:22;;;;;;;;;;;18.50;99.90;;;;;;5073920;28;20471;-74
2022/08/23 00:18:49;;;;;;;3.63;1.80;;;18.40;99.90;;;;;;5074426;28;19921;-76
2022/08/23 00:21:17;;;;;;;3.88;1.90;;;18.40;99.90;;;;;;5074546;28;20055;-76
2022/08/23 00:23:44;;;;;;;3.72;1.63;;;18.40;99.90;;;;;;5055924;28;20066;-76
2022/08/23 00:26:12;;;;;;;5.15;1.77;;;18.40;99.90;;;;;;5056888;28;20045;-74
2022/08/23 00:28:40;;;;;;;4.97;1.67;;;18.40;99.90;;;;;;5073515;28;20356;-75
2022/08/23 00:31:07;;;;;;;4.38;1.88;;;18.40;99.90;;;;;;5074125;28;20052;-73
2022/08/23 00:33:35;;;;;;;4.85;1.65;;;18.40;99.90;;;;;;5057076;28;20040;-75
2022/08/23 00:36:03;;;;;;;4.15;1.77;;;18.40;99.90;;;;;;5073496;28;20363;-75
2022/08/23 00:38:30;;;;;;;3.92;1.60;;;18.50;99.90;;;;;;5074521;28;20051;-74
2022/08/23 00:41:02;;;;;;;3.42;1.67;;;18.50;99.90;;;;;;5074795;28;20041;-75
2022/08/23 00:49:35;;;;;;;6.85;2.10;;;18.60;99.90;;;;;;5073107;28;20044;-76
2022/08/23 00:52:07;;;;;;;3.55;1.90;;;18.60;99.90;;;;;;5074364;28;20048;-74
2022/08/23 00:54:38;;;;;;;5.18;2.50;;;18.70;99.90;;;;;;5044456;28;20056;-75
2022/08/23 00:57:11;;;;;;;6.13;3.00;;;18.70;99.90;;;;;;5059180;28;20045;-74
2022/08/23 00:59:39;;;;;;;5.05;2.80;;;18.70;99.90;;;;;;5060466;28;20394;-75
2022/08/23 01:02:08;;;;;;;6.28;3.20;;;18.40;99.90;;;;;;5042678;28;20055;-74
2022/08/23 01:04:50;;;;;;;5.75;3.60;;;18.70;99.90;;;;;;5044128;28;20048;-74
2022/08/23 01:07:36;;;;;;;5.38;3.45;;;18.70;99.90;;;;;;5078157;28;20048;-75
2022/08/23 01:10:11;;;;;;;5.80;3.47;;;18.80;99.90;;;;;;5042957;28;20048;-76
2022/08/23 01:12:55;;;;;;;5.97;3.38;;;18.80;99.90;;;;;;5060240;28;20044;-75
2022/08/23 01:15:40;;;;;;;6.18;3.15;;;18.80;99.90;;;;;;5059622;28;20048;-74
2022/08/23 01:18:11;;;;;;;5.00;3.00;;;18.80;99.90;;;;;;5060247;28;20060;-77
2022/08/23 01:21:01;;;;;;;5.55;3.20;;;18.80;99.90;;;;;;5060180;28;20052;-74
2022/08/23 01:23:35;;;;;;;7.55;3.03;;;18.80;99.90;;;;;;5058976;28;20037;-76
2022/08/23 01:26:04;;;;;;;8.63;3.20;;;18.80;99.90;;;;;;5060069;28;20043;-74
2022/08/23 01:28:32;;;;;;;6.75;3.15;;;18.90;99.90;;;;;;5058950;28;20067;-74
2022/08/23 01:31:01;;;;;;;6.38;3.28;;;18.90;99.90;;;;;;5059921;28;20036;-74
2022/08/23 01:33:35;;;;;;;7.45;3.60;;;18.90;99.90;;;;;;5059625;28;20059;-75
2022/08/23 01:36:06;;;;;;;5.25;3.33;;;18.90;99.90;;;;;;5058868;28;20052;-76
2022/08/23 01:38:37;;;;;;;5.78;3.47;;;18.90;99.90;;;;;;5059744;28;20356;-76
2022/08/23 01:41:09;;;;;;;5.47;2.97;;;18.90;99.90;;;;;;5060158;28;20036;-77
2022/08/23 01:43:36;;;;;;;5.05;2.70;;;18.20;99.90;;;;;;5076079;28;20040;-74
2022/08/23 01:46:15;;;;;;;5.05;2.83;;;19.00;99.90;;;;;;5059969;28;20447;-74
2022/08/23 01:48:45;;;;;;;3.80;2.83;;;19.00;99.90;;;;;;5058730;28;20059;-74
2022/08/23 01:51:17;;;;;;;3.28;1.65;;;19.00;99.90;;;;;;5059586;28;20040;-75
2022/08/23 01:53:46;;;;;;;3.38;1.80;;;19.00;99.90;;;;;;5077151;28;20041;-74
2022/08/23 01:56:18;;;;;;;6.43;1.90;;;19.00;99.90;;;;;;5058332;28;20075;-76
2022/08/23 01:58:56;;;;;;;4.47;2.28;;;19.00;99.90;;;;;;5059485;28;20041;-73
2022/08/23 02:01:31;;;;;;;3.50;2.10;;;19.00;99.90;;;;;;5058412;28;20040;-75
2022/08/23 02:03:58;;;;;;;5.38;2.30;;;19.00;99.90;;;;;;5059190;28;20045;-74
2022/08/23 02:06:32;;;;;;;4.80;2.60;;;19.00;99.90;;;;;;5059246;28;20383;-74
2022/08/23 02:09:01;;;;;;;5.25;2.97;;;19.00;99.90;;;;;;5041760;28;20045;-74
2022/08/23 02:11:39;;;;;;;6.25;3.35;;;19.10;99.90;;;;;;5059746;28;20067;-74
2022/08/23 02:14:10;;;;;;;8.05;4.30;;;19.10;99.90;;;;;;5059483;28;20044;-75
2022/08/23 02:16:54;;;;;;;10.75;5.95;;;19.10;99.90;;;;;;5057737;28;20059;-74
2022/08/23 02:19:34;;;;;;;10.38;6.40;;;19.10;99.90;;;;;;5076388;28;20060;-75
2022/08/23 02:22:03;;;;;;;7.93;6.03;;;19.10;99.90;;;;;;5058544;28;20041;-74
2022/08/23 02:24:31;;;;;;;10.98;6.25;;;19.10;99.90;;;;;;5059128;28;20371;-74
2022/08/23 02:27:02;;;;;;;8.30;6.13;;;19.10;99.90;;;;;;5058846;28;20044;-73
2022/08/23 02:29:34;;;;;;;10.48;6.40;;;19.10;99.90;;;;;;5057435;28;20048;-75
2022/08/23 02:32:09;;;;;;;7.75;5.63;;;19.10;99.90;;;;;;5058579;28;20053;-76
2022/08/23 02:34:39;;;;;;;12.15;6.65;;;19.00;99.90;;;;;;5076631;28;20048;-76
2022/08/23 02:37:09;;;;;;;9.98;5.88;;;19.10;99.90;;;;;;5057442;28;20041;-74
2022/08/23 02:39:37;;;;;;;13.70;6.40;;;19.10;99.90;;;;;;5076452;28;20040;-74
2022/08/23 02:42:07;;;;;;;9.95;6.30;;;19.10;99.90;;;;;;5057693;28;20040;-74
2022/08/23 02:44:40;;;;;;;10.88;7.25;;;19.10;99.90;;;;;;5058686;28;20045;-76
2022/08/23 02:47:10;;;;;;;10.18;6.38;;;19.10;99.90;;;;;;5058460;28;20060;-75
2022/08/23 02:49:41;;;;;;;10.77;6.70;;;19.10;99.90;;;;;;5057513;28;20052;-76
2022/08/23 02:52:09;;;;;;;9.45;6.55;;;19.10;99.90;;;;;;5075732;28;20055;-74
2022/08/23 02:54:37;;;;;;;9.48;6.68;;;19.10;99.90;;;;;;5041715;28;20044;-77
2022/08/23 02:57:04;;;;;;;9.80;6.22;;;19.10;99.90;;;;;;5040708;28;20040;-75
2022/08/23 02:59:32;;;;;;;9.30;6.47;;;19.10;99.90;;;;;;5075618;28;20375;-74
2022/08/23 03:02:00;;;;;;;8.88;6.43;;;19.10;99.90;;;;;;5056988;28;20486;-74
2022/08/23 03:04:33;;;;;;;10.13;6.90;;;19.20;99.90;;;;;;5058063;28;20394;-75
2022/08/23 03:07:01;;;;;;;11.73;6.95;;;19.10;99.90;;;;;;5075460;28;20052;-74
2022/08/23 03:09:28;;;;;;;11.40;7.53;;;19.10;99.90;;;;;;5056866;28;20059;-75
2022/08/23 03:11:56;;;;;;;16.10;8.07;;;19.10;99.90;;;;;;5075343;28;20045;-76
2022/08/23 03:14:26;;;;;;;12.18;7.70;;;19.10;99.90;;;;;;5058133;28;20466;-74
2022/08/23 03:16:54;;;;;;;17.80;9.05;;;19.00;99.90;;;;;;5039339;28;20052;-75
2022/08/23 03:19:25;;;;;;;14.75;8.90;;;19.10;99.90;;;;;;5058606;28;20041;-76
2022/08/23 03:21:53;;;;;;;22.50;10.05;;;19.00;99.90;;;;;;5074005;28;20049;-74
2022/08/23 03:24:21;;;;;;;23.95;11.18;;;19.00;99.90;;;;;;5057791;28;20048;-74
2022/08/23 03:26:50;;;;;;;16.10;9.20;;;19.00;99.90;;;;;;5057760;28;20452;-76
2022/08/23 03:29:18;;;;;;;15.73;10.27;;;19.00;99.90;;;;;;5056647;28;20363;-75
2022/08/23 03:32:12;;;;;;;20.13;11.45;;;19.00;99.90;;;;;;5072865;28;20085;-76
2022/08/23 03:34:43;;;;;;;19.48;12.25;;;19.00;99.90;;;;;;5057633;28;20048;-74
2022/08/23 03:37:11;;;;;;;24.13;13.20;;;18.90;99.90;;;;;;5057391;28;20037;-74
2022/08/23 03:39:38;;;;;;;28.30;14.27;;;18.90;99.90;;;;;;5057685;28;20044;-76
2022/08/23 03:42:07;;;;;;;30.52;14.00;;;18.90;99.90;;;;;;5056540;28;20051;-76
2022/08/23 03:44:36;;;;;;;25.10;13.95;;;18.90;99.90;;;;;;5057595;28;20047;-75
2022/08/23 03:47:04;;;;;;;29.52;13.73;;;18.90;99.90;;;;;;5057431;28;20048;-73
2022/08/23 03:49:32;;;;;;;30.73;14.32;;;18.90;99.90;;;;;;5056156;28;20054;-74
2022/08/23 03:52:00;;;;;;;;;;;18.90;99.90;;;;;;5075612;28;20044;-74
2022/08/23 03:54:31;;;;;;;23.52;12.57;;;18.90;99.90;;;;;;5057618;28;20347;-74
2022/08/23 03:57:01;;;;;;;;;;;18.90;99.90;;;;;;5074256;28;20045;-76
2022/08/23 03:59:34;;;;;;;30.88;13.70;;;18.90;99.90;;;;;;5041473;28;19927;-76
2022/08/23 04:02:04;;;;;;;36.38;15.10;;;18.80;99.90;;;;;;5056070;28;20051;-75
2022/08/23 04:04:32;;;;;;;27.63;13.88;;;18.80;99.90;;;;;;5057169;28;20052;-76
2022/08/23 04:07:23;;;;;;;29.70;14.45;;;18.90;99.90;;;;;;5028327;28;20060;-74
2022/08/23 04:09:55;;;;;;;29.58;13.95;;;18.90;99.90;;;;;;5055961;28;20468;-76
2022/08/23 04:12:25;;;;;;;32.55;14.80;;;18.90;99.90;;;;;;5057605;28;20040;-75
2022/08/23 04:14:53;;;;;;;;;;;18.90;99.90;;;;;;5055275;28;20063;-74
2022/08/23 04:17:22;;;;;;;34.83;14.82;;;18.90;99.90;;;;;;5039873;28;19947;-74
2022/08/23 04:19:51;;;;;;;28.40;15.10;;;18.90;99.90;;;;;;5057129;28;20040;-75
2022/08/23 04:22:19;;;;;;;33.55;15.73;;;18.90;99.90;;;;;;5073353;28;20375;-76
2022/08/23 04:24:47;;;;;;;33.28;15.70;;;18.90;99.90;;;;;;5056980;28;20048;-73
2022/08/23 04:27:15;;;;;;;32.38;16.42;;;18.90;99.90;;;;;;5058879;28;20067;-73
2022/08/23 04:29:44;;;;;;;41.33;17.02;;;18.90;99.90;;;;;;5060047;28;20044;-73
2022/08/23 04:32:13;;;;;;;41.05;17.73;;;18.90;99.90;;;;;;5060938;28;20352;-75
2022/08/23 04:34:54;;;;;;;31.95;16.33;;;18.90;99.90;;;;;;5077542;28;20055;-74
2022/08/23 04:37:22;;;;;;;34.72;17.40;;;18.90;99.90;;;;;;5060838;28;20451;-76
2022/08/23 04:42:41;;;;;;;33.78;16.17;;;18.90;99.90;;;;;;5043354;28;20048;-74
2022/08/23 04:45:10;;;;;;;33.53;17.33;;;18.90;99.90;;;;;;5060806;28;20055;-75
2022/08/23 04:47:43;;;;;;;31.45;16.77;;;18.90;99.90;;;;;;5061169;28;20459;-75
2022/08/23 04:50:11;;;;;;;32.40;15.23;;;18.90;99.90;;;;;;5059531;28;20043;-76
2022/08/23 04:52:57;;;;;;;28.27;14.57;;;18.90;99.90;;;;;;5078502;28;20040;-75
2022/08/23 04:55:26;;;;;;;27.00;14.50;;;18.90;99.90;;;;;;5059785;28;20036;-75
2022/08/23 04:58:14;;;;;;;32.33;15.13;;;18.90;99.90;;;;;;5077691;28;20509;-73
2022/08/23 05:00:49;;;;;;;35.95;14.85;;;18.80;99.90;;;;;;5060737;28;20471;-75
2022/08/23 05:03:23;;;;;;;31.40;14.80;;;18.80;99.90;;;;;;5059762;28;20332;-75
2022/08/23 05:05:54;;;;;;;26.50;13.07;;;18.80;99.90;;;;;;5060687;28;20040;-76
2022/08/23 05:08:27;;;;;;;29.42;13.60;;;18.80;99.90;;;;;;5043160;28;20048;-76
2022/08/23 05:10:59;;;;;;;24.95;12.55;;;18.80;99.90;;;;;;5060230;28;20375;-76
2022/08/23 05:13:28;;;;;;;22.27;12.85;;;18.80;99.90;;;;;;5043661;28;20048;-74
2022/08/23 05:15:57;;;;;;;24.48;13.27;;;18.80;99.90;;;;;;5042508;28;20067;-75
2022/08/23 05:18:28;;;;;;;26.42;12.98;;;18.80;99.90;;;;;;5060328;28;20045;-75
2022/08/23 05:20:56;;;;;;;22.25;12.57;;;18.80;99.90;;;;;;5060501;28;20044;-74
2022/08/23 05:23:25;;;;;;;21.50;11.45;;;18.80;99.90;;;;;;5076421;28;20044;-76
2022/08/23 05:26:11;;;;;;;22.77;11.65;;;18.80;99.90;;;;;;5045955;28;20044;-74
2022/08/23 05:28:44;;;;;;;21.88;11.95;;;18.80;99.90;;;;;;5042902;28;20374;-76
2022/08/23 05:31:22;;;;;;;19.23;10.65;;;18.80;99.90;;;;;;5042946;28;20059;-73
2022/08/23 05:33:53;;;;;;;17.83;10.48;;;18.90;99.90;;;;;;5060115;28;20047;-75
2022/08/23 05:36:30;;;;;;;13.30;8.60;;;18.80;99.90;;;;;;5058754;28;20044;-75
2022/08/23 05:39:00;;;;;;;23.38;9.57;;;18.90;99.90;;;;;;5042175;28;20466;-75
2022/08/23 05:41:29;;;;;;;14.20;8.55;;;18.80;99.90;;;;;;5058296;28;20037;-75
2022/08/23 05:44:09;;;;;;;15.80;8.70;;;18.80;99.90;;;;;;5043638;28;20067;-75
2022/08/23 05:46:41;;;;;;;14.63;7.57;;;18.80;99.90;;;;;;5059628;28;20044;-75
2022/08/23 05:49:38;;;;;;;15.30;8.32;;;18.90;99.90;;;;;;5058539;28;20059;-76
2022/08/23 05:52:10;;;;;;;11.85;6.88;;;18.90;99.90;;;;;;5059429;28;20475;-76
2022/08/23 05:54:38;;;;;;;14.38;7.32;;;18.90;99.90;;;;;;5059387;28;20371;-76
2022/08/23 05:57:44;;;;;;;15.40;7.85;;;18.90;99.90;;;;;;4995835;28;20069;-75
2022/08/23 06:00:14;;;;;;;11.35;6.93;;;19.00;99.90;;;;;;4995739;28;20054;-75
2022/08/23 06:02:53;;;;;;;15.52;7.40;;;19.10;99.90;;;;;;5023844;28;20159;-75
2022/08/23 06:05:21;;;;;;;13.45;6.63;;;19.10;99.90;;;;;;5059707;28;20044;-75
2022/08/23 06:07:50;;;;;;;9.55;5.50;;;19.20;99.90;;;;;;5059421;28;20048;-74
2022/08/23 06:10:21;;;;;;;9.85;5.60;;;19.20;99.90;;;;;;5058116;28;20045;-75
2022/08/23 06:12:56;;;;;;;8.85;5.70;;;19.30;99.90;;;;;;5059160;28;20048;-76
2022/08/23 06:15:24;;;;;;;8.15;6.07;;;19.30;99.90;;;;;;5058408;28;20053;-77
2022/08/23 06:17:52;;;;;;;12.50;6.20;;;19.40;99.90;;;;;;5059079;28;20439;-74
2022/08/23 06:20:20;;;;;;;;;;;19.40;99.90;;;;;;5059561;28;20040;-76
2022/08/23 06:22:59;;;;;;;11.48;7.70;;;19.20;99.90;;;;;;5043042;28;19921;-77
2022/08/23 06:25:27;;;;;;;14.25;9.02;;;19.40;99.90;;;;;;5059572;28;20049;-76
2022/08/23 06:28:17;;;;;;;13.85;8.52;;;19.50;99.90;;;;;;5075094;28;20060;-75
2022/08/23 06:30:45;;;;;;;14.55;9.23;;;19.50;99.90;;;;;;5058965;28;20459;-75
2022/08/23 06:33:25;;;;;;;13.10;9.43;;;19.50;99.90;;;;;;5058820;28;20060;-76
2022/08/23 06:36:19;;;;;;;22.13;11.48;;;19.40;99.90;;;;;;5053673;28;20061;-75
2022/08/23 06:39:11;;;;;;;17.75;11.10;;;19.30;99.90;;;;;;5075845;28;20044;-75
2022/08/23 06:42:07;;;;;;;21.25;12.60;;;19.30;99.90;;;;;;5040648;28;20044;-74
2022/08/23 06:45:00;;;;;;;17.83;11.88;;;19.30;99.90;;;;;;5059069;28;20041;-76
2022/08/23 06:47:39;;;;;;;20.90;12.50;;;19.30;99.90;;;;;;5076133;28;20048;-75
2022/08/23 06:50:08;;;;;;;20.30;13.07;;;19.30;99.90;;;;;;5056315;28;20368;-75
2022/08/23 06:52:54;;;;;;;18.43;12.47;;;19.20;99.90;;;;;;5076078;28;20040;-75
2022/08/23 06:55:54;;;;;;;24.08;13.55;;;19.20;99.90;;;;;;5041052;28;20063;-76
2022/08/23 06:58:58;;;;;;;22.63;13.85;;;19.20;99.90;;;;;;5013618;28;20065;-75
2022/08/23 07:01:49;;;;;;;21.77;13.48;;;19.20;99.90;;;;;;5038652;28;20049;-74
2022/08/23 07:04:31;;;;;;;21.02;14.02;;;19.30;99.90;;;;;;5057832;28;20049;-78
2022/08/23 07:07:30;;;;;;;22.88;14.77;;;19.30;99.90;;;;;;5058080;28;20040;-74
2022/08/23 07:10:11;;;;;;;23.08;14.55;;;19.40;99.90;;;;;;5056833;28;20375;-76
2022/08/23 07:12:42;;;;;;;19.25;12.77;;;19.50;99.90;;;;;;5057842;28;20045;-76
2022/08/23 07:15:11;;;;;;;20.10;13.57;;;19.50;99.90;;;;;;5056294;28;20040;-73
2022/08/23 07:17:42;;;;;;;17.27;12.15;;;19.60;99.90;;;;;;5057965;28;20359;-75
2022/08/23 07:20:10;;;;;;;24.25;13.23;;;19.70;99.90;;;;;;5057556;28;20371;-76
2022/08/23 07:22:43;;;;;;;19.73;12.15;;;19.70;99.90;;;;;;5056682;28;20052;-76
2022/08/23 07:25:11;;;;;;;21.58;13.50;;;19.80;99.90;;;;;;5041027;28;20044;-74
2022/08/23 07:27:43;;;;;;;18.92;10.82;;;19.80;99.90;;;;;;5057481;28;20051;-84
2022/08/23 07:30:34;;;;;;;15.70;10.10;;;19.90;99.90;;;;;;5044635;28;20064;-84
2022/08/23 07:33:11;;;;;;;15.85;9.40;;;19.90;99.90;;;;;;5056685;28;20059;-77
2022/08/23 07:35:59;;;;;;;14.82;10.15;;;19.90;99.90;;;;;;5059420;28;20040;-78
2022/08/23 07:38:27;;;;;;;;;;;19.80;99.90;;;;;;5057990;28;20051;-77
2022/08/23 07:40:58;;;;;;;17.52;10.18;;;19.70;99.90;;;;;;5041506;28;19920;-76
2022/08/23 07:43:26;;;;;;;14.02;8.80;;;19.60;99.90;;;;;;5074366;28;20056;-77
2022/08/23 07:45:54;;;;;;;19.27;9.07;;;19.60;99.90;;;;;;5058123;28;20052;-78
2022/08/23 07:48:22;;;;;;;;;;;19.60;99.90;;;;;;5024299;28;20052;-78
2022/08/23 07:51:16;;;;;;;15.90;8.18;;;19.70;99.90;;;;;;5057979;28;19924;-77
2022/08/23 07:53:45;;;;;;;18.08;7.97;;;20.00;99.90;;;;;;5057724;28;20048;-77
2022/08/23 07:56:18;;;;;;;13.88;6.30;;;20.00;99.90;;;;;;5040478;28;20056;-77
2022/08/23 07:59:08;;;;;;;11.60;5.65;;;20.30;99.90;;;;;;5057861;28;20103;-78
2022/08/23 08:01:58;;;;;;;8.93;4.78;;;20.60;99.90;;;;;;5058470;28;20053;-76
2022/08/23 08:04:26;;;;;;;;;;;20.90;99.90;;;;;;5041522;28;20045;-77
2022/08/23 08:06:57;;;;;;;10.40;3.58;;;21.00;99.90;;;;;;5057269;28;19931;-77
2022/08/23 08:09:46;;;;;;;7.90;2.63;;;21.10;99.90;;;;;;5056155;28;20040;-77
2022/08/23 08:12:14;;;;;;;6.63;2.50;;;21.20;99.90;;;;;;5057229;28;20044;-77
2022/08/23 08:14:43;;;;;;;;;;;21.30;99.90;;;;;;5058269;28;20048;-77
2022/08/23 08:17:15;;;;;;;8.93;2.17;;;21.30;99.90;;;;;;5057771;28;19920;-77
2022/08/23 08:20:09;;;;;;;6.50;2.20;;;21.40;99.90;;;;;;5027118;28;20443;-79
2022/08/23 08:22:55;;;;;;;8.02;2.33;;;21.50;99.90;;;;;;5056635;28;20056;-78
2022/08/23 08:26:07;;;;;;;6.18;2.53;;;21.60;99.90;;;;;;5019773;28;20056;-78
2022/08/23 08:28:37;;;;;;;7.88;2.35;;;21.70;99.90;;;;;;5040313;28;20059;-78
2022/08/23 08:31:06;;;;;;;7.25;2.50;;;21.70;99.90;;;;;;5040828;28;20044;-77
2022/08/23 08:33:35;;;;;;;6.32;2.60;;;21.70;99.90;;;;;;5074551;28;20045;-77
2022/08/23 08:36:05;;;;;;;9.10;2.60;;;21.80;99.90;;;;;;5056043;28;20044;-78
2022/08/23 08:38:38;;;;;;;7.13;2.53;;;21.90;99.90;;;;;;5054974;28;20452;-74
2022/08/23 08:41:34;;;;;;;10.50;2.67;;;21.90;99.90;;;;;;5033374;28;20049;-76
2022/08/23 08:44:14;;;;;;;13.02;2.70;;;22.20;99.90;;;;;;5048553;28;20104;-77
2022/08/23 08:46:48;;;;;;;9.93;2.30;;;22.40;99.90;;;;;;5049822;28;20032;-76
2022/08/23 08:49:55;;;;;;;6.65;2.15;;;22.60;99.90;;;;;;5055270;28;20048;-77
2022/08/23 08:52:29;;;;;;;7.80;2.47;;;21.70;99.90;;;;;;5003511;28;20399;-76
2022/08/23 08:55:12;;;;;;;8.75;2.40;;;22.90;99.90;;;;;;5056356;28;20056;-78
2022/08/23 08:57:47;;;;;;;9.32;2.13;;;22.90;99.90;;;;;;5040712;28;20056;-78
2022/08/23 09:00:22;;;;;;;9.70;2.40;;;23.00;99.90;;;;;;5056701;28;20040;-78
2022/08/23 09:02:50;;;;;;;6.38;2.33;;;23.00;99.90;;;;;;5023160;28;20044;-79
2022/08/23 09:05:27;;;;;;;13.32;2.60;;;22.90;99.90;;;;;;5056831;28;20036;-75
2022/08/23 09:08:14;;;;;;;7.32;2.40;;;22.90;99.70;;;;;;5056866;28;20059;-82
2022/08/23 09:11:12;;;;;;;5.65;2.08;;;22.90;99.50;;;;;;5057305;28;20048;-79
2022/08/23 09:13:59;;;;;;;5.82;2.03;;;23.00;99.20;;;;;;4999787;28;20475;-79
2022/08/23 09:17:23;;;;;;;5.82;2.30;;;23.70;98.80;;;;;;5060739;28;20037;-82
2022/08/23 09:20:32;;;;;;;5.70;1.92;;;23.30;99.80;;;;;;5041255;28;20170;-77
2022/08/23 09:23:10;;;;;;;7.28;2.17;;;22.60;98.90;;;;;;5058821;28;20040;-77
2022/08/23 09:25:39;;;;;;;4.93;1.70;;;23.40;97.30;;;;;;5060230;28;20036;-77
2022/08/23 09:28:15;;;;;;;7.60;1.92;;;23.50;97.30;;;;;;5059059;28;20040;-80
2022/08/23 09:30:48;;;;;;;12.27;2.13;;;23.50;96.80;;;;;;5059752;28;20040;-79
2022/08/23 09:33:22;;;;;;;7.30;2.13;;;23.60;96.40;;;;;;5043072;28;20056;-78
2022/08/23 09:36:25;;;;;;;5.90;1.90;;;23.70;96.20;;;;;;5058782;28;20044;-78
2022/08/23 09:39:21;;;;;;;4.88;2.03;;;23.80;94.90;;;;;;5059681;28;20051;-79
2022/08/23 09:41:59;;;;;;;7.78;2.03;;;24.00;95.50;;;;;;5054402;28;20079;-77
2022/08/23 09:44:38;;;;;;;5.10;2.00;;;25.90;95.70;;;;;;5043122;28;20037;-78
2022/08/23 09:47:12;;;;;;;7.70;2.35;;;24.40;94.50;;;;;;5059455;28;20040;-77
2022/08/23 09:49:47;;;;;;;7.32;2.45;;;24.50;94.60;;;;;;5042308;28;20048;-79
2022/08/23 09:52:31;;;;;;;7.75;2.10;;;24.60;94.30;;;;;;5059088;28;20048;-80
2022/08/23 09:55:23;;;;;;;8.68;2.30;;;24.70;93.40;;;;;;5058085;28;20059;-78
2022/08/23 09:57:51;;;;;;;5.88;2.08;;;24.70;93.60;;;;;;5059542;28;20045;-79
2022/08/23 10:01:01;;;;;;;4.13;1.65;;;24.80;93.50;;;;;;5059227;28;20044;-79
2022/08/23 10:03:29;;;;;;;5.63;1.60;;;24.80;92.10;;;;;;5058255;28;20390;-77
2022/08/23 10:06:28;;;;;;;6.90;1.80;;;24.80;93.00;;;;;;5059416;28;20463;-79
2022/08/23 10:09:04;;;;;;;4.88;1.70;;;24.80;92.10;;;;;;5058159;28;20044;-78
2022/08/23 10:11:40;;;;;;;6.38;1.45;;;24.80;92.70;;;;;;5059624;28;20055;-80
2022/08/23 10:14:13;;;;;;;3.05;1.17;;;24.80;92.40;;;;;;5059398;28;20039;-79
2022/08/23 10:16:54;;;;;;;5.45;1.42;;;24.80;91.80;;;;;;5057988;28;20455;-78
2022/08/23 10:19:37;;;;;;;6.55;1.70;;;24.90;91.50;;;;;;5043068;28;20055;-75
2022/08/23 10:22:14;;;;;;;6.00;1.60;;;25.00;90.90;;;;;;5057955;28;20032;-77
2022/08/23 10:25:01;;;;;;;3.33;1.37;;;25.20;90.50;;;;;;5058848;28;20476;-77
2022/08/23 10:30:53;;;;;;;10.48;1.40;;;25.40;90.80;;;;;;5059276;28;20041;-81
2022/08/23 10:33:37;;;;;;;8.13;1.50;;;25.40;90.20;;;;;;5058942;28;20067;-81
2022/08/23 10:36:27;;;;;;;4.63;1.20;;;25.30;90.80;;;;;;5057922;28;20049;-81
2022/08/23 10:38:58;;;;;;;5.97;1.25;;;25.20;90.60;;;;;;5059044;28;20067;-81
2022/08/23 10:41:26;;;;;;;4.43;1.17;;;25.00;91.30;;;;;;5057799;28;20041;-77
2022/08/23 10:43:53;;;;;;;;;;;24.90;91.40;;;;;;5058963;28;20051;-79
2022/08/23 10:46:22;;;;;;;6.82;1.50;;;24.40;91.20;;;;;;5076729;28;19920;-79
2022/08/23 10:48:58;;;;;;;7.43;1.52;;;24.60;91.80;;;;;;5074927;28;20041;-78
2022/08/23 10:51:43;;;;;;;5.15;1.27;;;24.40;91.80;;;;;;5058544;28;20052;-76
2022/08/23 10:54:17;;;;;;;6.65;1.30;;;24.20;92.10;;;;;;5076338;28;20040;-77
2022/08/23 10:56:45;;;;;;;5.57;1.20;;;24.70;92.70;;;;;;5057195;28;20082;-76
2022/08/23 10:59:22;;;;;;;3.80;1.20;;;24.20;92.60;;;;;;5041463;28;20051;-75
2022/08/23 11:02:20;;;;;;;6.28;1.60;;;24.30;92.40;;;;;;5040682;28;20372;-76
2022/08/23 11:05:16;;;;;;;5.45;1.20;;;24.50;91.70;;;;;;5057965;28;20052;-76
2022/08/23 11:08:29;;;;;;;6.22;1.38;;;24.70;91.60;;;;;;5075374;28;20040;-76
2022/08/23 11:10:58;;;;;;;5.03;1.30;;;25.20;90.80;;;;;;5040854;28;20053;-77
2022/08/23 11:13:33;;;;;;;2.97;1.27;;;25.60;91.10;;;;;;5041126;28;20048;-77
2022/08/23 11:16:24;;;;;;;5.05;1.17;;;26.00;90.70;;;;;;5040137;28;20048;-76
2022/08/23 11:18:51;;;;;;;8.52;1.10;;;26.10;88.30;;;;;;5057837;28;20048;-78
2022/08/23 11:21:39;;;;;;;8.32;1.40;;;26.60;89.90;;;;;;5039875;28;20048;-76
2022/08/23 11:24:12;;;;;;;3.65;1.08;;;26.80;87.50;;;;;;5057298;28;20056;-76
2022/08/23 11:26:43;;;;;;;6.40;1.50;;;26.90;86.90;;;;;;5057458;28;20056;-77
2022/08/23 11:29:33;;;;;;;5.38;1.40;;;27.10;86.30;;;;;;5056496;28;20036;-77
2022/08/23 11:32:39;;;;;;;;;;;27.60;84.40;;;;;;5027398;28;20488;-77
2022/08/23 11:35:38;;;;;;;6.03;1.33;;;27.20;83.90;;;;;;5040295;28;19925;-78
2022/08/23 11:38:12;;;;;;;2.38;1.00;;;27.30;84.20;;;;;;5040966;28;20043;-78
2022/08/23 11:40:49;;;;;;;4.90;1.20;;;27.30;86.00;;;;;;5057530;28;20041;-78
2022/08/23 11:43:29;;;;;;;7.00;1.00;;;27.40;85.20;;;;;;5056424;28;20371;-77
2022/08/23 11:46:22;;;;;;;2.53;1.17;;;27.30;85.00;;;;;;5057309;28;20045;-76
2022/08/23 11:49:35;;;;;;;2.88;1.10;;;27.20;83.90;;;;;;5056121;28;20044;-79
2022/08/23 11:52:20;;;;;;;4.55;1.30;;;27.20;83.90;;;;;;5020291;28;20474;-79
2022/08/23 11:54:48;;;;;;;2.60;0.88;;;27.60;84.40;;;;;;5073490;28;20044;-78
2022/08/23 11:57:30;;;;;;;2.97;1.00;;;27.20;85.40;;;;;;5057085;28;20048;-78
2022/08/23 12:00:24;;;;;;;2.50;0.90;;;27.30;84.00;;;;;;5056938;28;20059;-76
2022/08/23 12:03:02;;;;;;;;;;;27.30;83.80;;;;;;5056944;28;20052;-77
2022/08/23 12:05:32;;;;;;;3.55;1.13;;;27.40;84.90;;;;;;5074542;28;19920;-78
2022/08/23 12:08:01;;;;;;;7.07;1.00;;;27.50;85.70;;;;;;5074232;28;20402;-76
2022/08/23 12:10:41;;;;;;;4.07;1.20;;;27.40;85.40;;;;;;5055680;28;20051;-76
2022/08/23 12:13:21;;;;;;;2.75;0.90;;;27.40;85.00;;;;;;5056780;28;20040;-77
2022/08/23 12:16:18;;;;;;;3.05;0.95;;;27.40;85.00;;;;;;5073421;28;20045;-76
2022/08/23 12:18:46;;;;;;;1.52;0.70;;;27.50;84.40;;;;;;5074549;28;20060;-74
2022/08/23 12:21:30;;;;;;;2.65;0.90;;;27.20;85.60;;;;;;5074619;28;20044;-77
2022/08/23 12:24:16;;;;;;;1.60;0.70;;;27.10;85.40;;;;;;5074766;28;20044;-76
2022/08/23 12:26:57;;;;;;;2.00;0.70;;;27.00;85.90;;;;;;5071877;28;20036;-79
2022/08/23 12:29:53;;;;;;;6.00;0.75;;;26.80;86.60;;;;;;5053377;28;20041;-74
2022/08/23 12:32:32;;;;;;;3.15;0.68;;;26.60;86.90;;;;;;5066850;28;20048;-76
2022/08/23 12:35:08;;;;;;;3.90;0.90;;;26.40;87.30;;;;;;5072990;28;20056;-77
2022/08/23 12:38:00;;;;;;;5.32;0.88;;;26.20;87.60;;;;;;5074688;28;20424;-77
2022/08/23 12:40:41;;;;;;;2.35;0.80;;;26.20;88.20;;;;;;5057082;28;20060;-77
2022/08/23 12:43:12;;;;;;;3.50;0.90;;;26.40;88.60;;;;;;5073545;28;20363;-76
2022/08/23 12:45:53;;;;;;;2.88;0.70;;;26.70;88.10;;;;;;5056990;28;20371;-79
2022/08/23 12:48:27;;;;;;;1.83;0.80;;;26.90;87.60;;;;;;5073581;28;20052;-76
2022/08/23 12:50:59;;;;;;;2.85;0.70;;;27.10;86.80;;;;;;5078370;28;20048;-77
2022/08/23 12:53:33;;;;;;;2.28;0.80;;;27.10;86.60;;;;;;5078224;28;20055;-77
2022/08/23 12:56:13;;;;;;;1.35;0.60;;;27.20;86.10;;;;;;5077410;28;20375;-79
2022/08/23 12:58:47;;;;;;;1.40;0.60;;;27.10;86.10;;;;;;5077525;28;20049;-76
2022/08/23 13:01:26;;;;;;;1.23;0.50;;;27.10;86.40;;;;;;5078156;28;20044;-83
2022/08/23 13:04:12;;;;;;;3.22;0.50;;;27.40;86.00;;;;;;5061462;28;20055;-77
2022/08/23 13:06:39;;;;;;;1.83;0.50;;;27.60;85.40;;;;;;5077939;28;20375;-78
2022/08/23 13:09:14;;;;;;;4.00;0.60;;;27.80;85.80;;;;;;5076848;28;20036;-78
2022/08/23 13:11:42;;;;;;;1.60;0.52;;;27.90;85.40;;;;;;5060380;28;20389;-75
2022/08/23 13:14:44;;;;;;;1.00;0.52;;;27.80;85.00;;;;;;5077737;28;20055;-76
2022/08/23 13:18:00;;;;;;;1.88;0.60;;;27.70;84.90;;;;;;5049175;28;20361;-80
2022/08/23 13:20:30;;;;;;;1.05;0.50;;;27.80;86.90;;;;;;5065397;28;20050;-79
2022/08/23 13:23:08;;;;;;;1.15;0.50;;;27.40;86.20;;;;;;5075377;28;20044;-76
2022/08/23 13:25:38;;;;;;;1.08;0.30;;;27.50;85.90;;;;;;5076585;28;20044;-76
2022/08/23 13:28:27;;;;;;;2.50;0.50;;;27.70;85.30;;;;;;5076563;28;20045;-74
2022/08/23 13:31:01;;;;;;;3.97;0.82;;;27.90;84.00;;;;;;5060657;28;20040;-74
2022/08/23 13:33:29;;;;;;;1.50;0.43;;;28.20;84.80;;;;;;5043675;28;20047;-75
2022/08/23 13:36:19;;;;;;;2.30;0.60;;;28.60;84.60;;;;;;5076486;28;20471;-74
2022/08/23 13:38:48;;;;;;;2.55;0.40;;;28.70;82.50;;;;;;5077199;28;20040;-74
2022/08/23 13:41:31;;;;;;;3.75;0.55;;;28.70;83.50;;;;;;5077156;28;20498;-74
2022/08/23 13:44:07;;;;;;;0.85;0.40;;;28.70;82.40;;;;;;5060004;28;20056;-75